Aeroporto :
LOGIN :

Iscrizione | Disclaimer

   EN    FR    IT 

 










Sommario :    VFR   VFR Marginale   IFR   IFR Intensivo   IFR Molto Intensivo
Visibilità : 
Base nubi : 
>= 8 km
>= 3000ft
5 / 8 km
1000 / 3000 ft
1500m / 5 km
500 / 1000 ft
800 / 1500m
200 / 500 ft
< 800m
< 200 ft
Simboli :   Temporali  Nebbia  Neve Forte  Precipitazioni Forti  Vento > 20 kt
SIGMETs :   Varie  Temporali  Ghiacco  Turbolenza  Onda orograficha  Ceneri Vulcaniche






- Altitudine del aeroporto : 622 ft
- Codice IATA : BRS


EGGD - Bristol Int.

ULTIMO METAR :
  • 021150Z AUTO 24007KT 180V270 9999 FEW005/// SCT018/// BKN026/// //////TCU 13/13 Q1017

METARs OBSOLETI :
  • 021120Z 26009KT 5000 -RA BR BKN003 BKN010 13/12 Q1018
  • 021050Z 27009KT 1500 R27/1400N -RA BR FEW002 BKN003 BKN008 13/12 Q1017
  • 021020Z 28008KT 260V320 1500 -RA BR BKN003 BKN008 13/12 Q1017 RERA REDZ
  • 020950Z AUTO 26007KT 190V280 2000 R27/1400U +RA BKN002 OVC007 13/12 Q1017 REDZ
  • 020920Z 17009KT 6000 1800W -RA SCT006 BKN009 14/13 Q1017

TAF TAF EGGD
Valido dal 02 a 12 ore il 03 a 12 ore UTC


021102Z 0212/0312 24009KT 9999 BKN015
TEMPO 0212/0214 3000 RADZ BR BKN004
PROB30
TEMPO 0212/0214 1200 DZRA OVC001
PROB30
TEMPO 0214/0217 7000 SHRA
PROB40 0303/0307 8000 -SHRA BKN008
ATIS : +44 1275 473 666



MetMap, La meteo Aeronautica in un colpo d'occhio ! - Copyright ORBIFLY Dicembre 2007 - Disclaimer

ORBIFLY MET'MAP TEAM :

Programmazione e sviluppo : Alexandra Zaïnal
Concezione : Baudouin d'Aumeries
Supporto tecnico e logistico : Manuel Goepfert
Aiuto : Marc-Olivier Méhu
Aiuto per la traduzione : Arnaldo La Scala




FONTI E CREDITI :

   NOAA